sensor_id;sensor_type;location;lat;lon;timestamp;P1;durP1;ratioP1;P2;durP2;ratioP2
22752;SDS011;11543;43.144;24.684;2023-11-21T00:01:54;14.93;;;8.25;;
22752;SDS011;11543;43.144;24.684;2023-11-21T00:04:20;13.38;;;8.40;;
22752;SDS011;11543;43.144;24.684;2023-11-21T00:06:46;12.43;;;7.90;;
22752;SDS011;11543;43.144;24.684;2023-11-21T00:09:12;16.58;;;8.65;;
22752;SDS011;11543;43.144;24.684;2023-11-21T00:11:40;17.08;;;10.15;;
22752;SDS011;11543;43.144;24.684;2023-11-21T00:14:06;21.27;;;10.93;;
22752;SDS011;11543;43.144;24.684;2023-11-21T00:16:32;21.25;;;11.45;;
22752;SDS011;11543;43.144;24.684;2023-11-21T00:18:57;24.67;;;13.02;;
22752;SDS011;11543;43.144;24.684;2023-11-21T00:21:22;22.10;;;12.05;;
22752;SDS011;11543;43.144;24.684;2023-11-21T00:23:48;21.80;;;11.73;;
22752;SDS011;11543;43.144;24.684;2023-11-21T00:26:14;19.58;;;10.50;;
22752;SDS011;11543;43.144;24.684;2023-11-21T00:28:39;16.48;;;8.57;;
22752;SDS011;11543;43.144;24.684;2023-11-21T00:31:05;18.25;;;9.90;;
22752;SDS011;11543;43.144;24.684;2023-11-21T00:33:30;15.65;;;8.90;;
22752;SDS011;11543;43.144;24.684;2023-11-21T00:35:56;14.43;;;8.20;;
22752;SDS011;11543;43.144;24.684;2023-11-21T00:38:22;20.52;;;11.02;;
22752;SDS011;11543;43.144;24.684;2023-11-21T00:40:48;16.52;;;9.45;;
22752;SDS011;11543;43.144;24.684;2023-11-21T00:43:13;16.65;;;9.25;;
22752;SDS011;11543;43.144;24.684;2023-11-21T00:45:39;18.27;;;8.48;;
22752;SDS011;11543;43.144;24.684;2023-11-21T00:48:05;13.95;;;8.50;;
22752;SDS011;11543;43.144;24.684;2023-11-21T00:50:30;14.20;;;7.90;;
22752;SDS011;11543;43.144;24.684;2023-11-21T00:52:56;11.45;;;7.10;;
22752;SDS011;11543;43.144;24.684;2023-11-21T00:55:22;11.60;;;6.80;;
22752;SDS011;11543;43.144;24.684;2023-11-21T00:57:47;10.95;;;6.07;;
22752;SDS011;11543;43.144;24.684;2023-11-21T01:00:13;9.52;;;6.03;;
22752;SDS011;11543;43.144;24.684;2023-11-21T01:02:42;9.90;;;5.80;;
22752;SDS011;11543;43.144;24.684;2023-11-21T01:05:09;11.40;;;6.00;;
22752;SDS011;11543;43.144;24.684;2023-11-21T01:07:35;8.68;;;5.88;;
22752;SDS011;11543;43.144;24.684;2023-11-21T01:10:02;8.57;;;5.65;;
22752;SDS011;11543;43.144;24.684;2023-11-21T01:12:28;11.07;;;6.22;;
22752;SDS011;11543;43.144;24.684;2023-11-21T01:14:54;10.23;;;5.82;;
22752;SDS011;11543;43.144;24.684;2023-11-21T01:17:19;9.73;;;5.85;;
22752;SDS011;11543;43.144;24.684;2023-11-21T01:19:47;11.27;;;6.68;;
22752;SDS011;11543;43.144;24.684;2023-11-21T01:22:13;11.88;;;6.50;;
22752;SDS011;11543;43.144;24.684;2023-11-21T01:24:38;12.80;;;7.00;;
22752;SDS011;11543;43.144;24.684;2023-11-21T01:27:04;14.73;;;7.32;;
22752;SDS011;11543;43.144;24.684;2023-11-21T01:29:29;11.85;;;6.78;;
22752;SDS011;11543;43.144;24.684;2023-11-21T01:31:55;13.20;;;7.45;;
22752;SDS011;11543;43.144;24.684;2023-11-21T01:34:22;9.90;;;6.40;;
22752;SDS011;11543;43.144;24.684;2023-11-21T01:36:48;10.60;;;6.30;;
22752;SDS011;11543;43.144;24.684;2023-11-21T01:39:14;10.45;;;5.90;;
22752;SDS011;11543;43.144;24.684;2023-11-21T01:41:41;8.27;;;4.97;;
22752;SDS011;11543;43.144;24.684;2023-11-21T01:44:09;9.18;;;4.50;;
22752;SDS011;11543;43.144;24.684;2023-11-21T01:46:35;6.18;;;4.43;;
22752;SDS011;11543;43.144;24.684;2023-11-21T01:49:00;8.05;;;4.70;;
22752;SDS011;11543;43.144;24.684;2023-11-21T01:51:26;8.13;;;4.80;;
22752;SDS011;11543;43.144;24.684;2023-11-21T01:53:52;10.32;;;5.32;;
22752;SDS011;11543;43.144;24.684;2023-11-21T01:56:17;7.88;;;4.60;;
22752;SDS011;11543;43.144;24.684;2023-11-21T01:58:43;9.13;;;4.55;;
22752;SDS011;11543;43.144;24.684;2023-11-21T02:01:11;9.60;;;4.95;;
22752;SDS011;11543;43.144;24.684;2023-11-21T02:03:37;8.38;;;4.55;;
22752;SDS011;11543;43.144;24.684;2023-11-21T02:06:02;8.70;;;4.60;;
22752;SDS011;11543;43.144;24.684;2023-11-21T02:08:28;7.53;;;4.65;;
22752;SDS011;11543;43.144;24.684;2023-11-21T02:10:54;10.70;;;4.82;;
22752;SDS011;11543;43.144;24.684;2023-11-21T02:13:19;8.85;;;4.90;;
22752;SDS011;11543;43.144;24.684;2023-11-21T02:15:45;8.88;;;5.25;;
22752;SDS011;11543;43.144;24.684;2023-11-21T02:18:10;9.43;;;5.13;;
22752;SDS011;11543;43.144;24.684;2023-11-21T02:20:36;7.30;;;4.40;;
22752;SDS011;11543;43.144;24.684;2023-11-21T02:23:04;9.25;;;4.60;;
22752;SDS011;11543;43.144;24.684;2023-11-21T02:25:30;7.05;;;3.85;;
22752;SDS011;11543;43.144;24.684;2023-11-21T02:27:58;9.93;;;3.95;;
22752;SDS011;11543;43.144;24.684;2023-11-21T02:30:25;9.60;;;4.18;;
22752;SDS011;11543;43.144;24.684;2023-11-21T02:32:51;9.73;;;4.30;;
22752;SDS011;11543;43.144;24.684;2023-11-21T02:35:20;9.43;;;5.05;;
22752;SDS011;11543;43.144;24.684;2023-11-21T02:37:50;9.85;;;4.93;;
22752;SDS011;11543;43.144;24.684;2023-11-21T02:40:17;9.98;;;4.93;;
22752;SDS011;11543;43.144;24.684;2023-11-21T02:42:46;11.95;;;6.28;;
22752;SDS011;11543;43.144;24.684;2023-11-21T02:45:12;7.63;;;3.83;;
22752;SDS011;11543;43.144;24.684;2023-11-21T02:47:39;7.75;;;4.60;;
22752;SDS011;11543;43.144;24.684;2023-11-21T02:50:05;7.55;;;3.60;;
22752;SDS011;11543;43.144;24.684;2023-11-21T02:52:33;5.03;;;2.95;;
22752;SDS011;11543;43.144;24.684;2023-11-21T02:54:59;5.72;;;3.30;;
22752;SDS011;11543;43.144;24.684;2023-11-21T02:57:24;6.38;;;3.83;;
22752;SDS011;11543;43.144;24.684;2023-11-21T02:59:50;12.35;;;3.33;;
22752;SDS011;11543;43.144;24.684;2023-11-21T03:02:15;5.25;;;3.03;;
22752;SDS011;11543;43.144;24.684;2023-11-21T03:04:41;7.28;;;3.17;;
22752;SDS011;11543;43.144;24.684;2023-11-21T03:07:08;5.07;;;3.10;;
22752;SDS011;11543;43.144;24.684;2023-11-21T03:09:34;5.90;;;3.25;;
22752;SDS011;11543;43.144;24.684;2023-11-21T03:12:00;12.27;;;6.38;;
22752;SDS011;11543;43.144;24.684;2023-11-21T03:14:25;11.82;;;6.85;;
22752;SDS011;11543;43.144;24.684;2023-11-21T03:16:51;12.75;;;6.80;;
22752;SDS011;11543;43.144;24.684;2023-11-21T03:19:16;11.02;;;6.28;;
22752;SDS011;11543;43.144;24.684;2023-11-21T03:21:42;8.63;;;5.30;;
22752;SDS011;11543;43.144;24.684;2023-11-21T03:24:07;11.50;;;5.30;;
22752;SDS011;11543;43.144;24.684;2023-11-21T03:26:33;12.57;;;6.50;;
22752;SDS011;11543;43.144;24.684;2023-11-21T03:28:59;14.68;;;7.55;;
22752;SDS011;11543;43.144;24.684;2023-11-21T03:31:24;15.98;;;8.57;;
22752;SDS011;11543;43.144;24.684;2023-11-21T03:33:50;16.52;;;8.45;;
22752;SDS011;11543;43.144;24.684;2023-11-21T03:36:15;15.60;;;7.85;;
22752;SDS011;11543;43.144;24.684;2023-11-21T03:38:43;11.68;;;6.80;;
22752;SDS011;11543;43.144;24.684;2023-11-21T03:41:08;15.02;;;6.82;;
22752;SDS011;11543;43.144;24.684;2023-11-21T03:43:37;13.43;;;6.68;;
22752;SDS011;11543;43.144;24.684;2023-11-21T03:46:03;13.57;;;7.75;;
22752;SDS011;11543;43.144;24.684;2023-11-21T03:48:29;10.73;;;6.55;;
22752;SDS011;11543;43.144;24.684;2023-11-21T03:50:54;14.60;;;6.93;;
22752;SDS011;11543;43.144;24.684;2023-11-21T03:53:20;10.90;;;6.13;;
22752;SDS011;11543;43.144;24.684;2023-11-21T03:55:45;9.23;;;5.47;;
22752;SDS011;11543;43.144;24.684;2023-11-21T03:58:11;10.40;;;5.57;;
22752;SDS011;11543;43.144;24.684;2023-11-21T04:00:37;10.52;;;5.60;;
22752;SDS011;11543;43.144;24.684;2023-11-21T04:03:03;10.82;;;5.72;;
22752;SDS011;11543;43.144;24.684;2023-11-21T04:05:28;10.05;;;5.57;;
22752;SDS011;11543;43.144;24.684;2023-11-21T04:07:54;11.20;;;6.10;;
22752;SDS011;11543;43.144;24.684;2023-11-21T04:10:19;13.10;;;6.18;;
22752;SDS011;11543;43.144;24.684;2023-11-21T04:12:45;12.63;;;6.88;;
22752;SDS011;11543;43.144;24.684;2023-11-21T04:15:11;15.02;;;8.00;;
22752;SDS011;11543;43.144;24.684;2023-11-21T04:17:38;14.95;;;8.02;;
22752;SDS011;11543;43.144;24.684;2023-11-21T04:20:04;20.65;;;9.30;;
22752;SDS011;11543;43.144;24.684;2023-11-21T04:22:38;20.73;;;9.82;;
22752;SDS011;11543;43.144;24.684;2023-11-21T04:25:13;13.93;;;7.75;;
22752;SDS011;11543;43.144;24.684;2023-11-21T04:27:40;14.18;;;7.25;;
22752;SDS011;11543;43.144;24.684;2023-11-21T04:30:09;11.57;;;5.68;;
22752;SDS011;11543;43.144;24.684;2023-11-21T04:32:38;10.23;;;5.90;;
22752;SDS011;11543;43.144;24.684;2023-11-21T04:35:07;8.80;;;4.40;;
22752;SDS011;11543;43.144;24.684;2023-11-21T04:37:33;7.82;;;3.90;;
22752;SDS011;11543;43.144;24.684;2023-11-21T04:39:59;5.75;;;3.35;;
22752;SDS011;11543;43.144;24.684;2023-11-21T04:42:24;7.20;;;3.60;;
22752;SDS011;11543;43.144;24.684;2023-11-21T04:44:50;5.47;;;3.38;;
22752;SDS011;11543;43.144;24.684;2023-11-21T04:47:17;6.90;;;3.88;;
22752;SDS011;11543;43.144;24.684;2023-11-21T04:49:45;6.25;;;3.58;;
22752;SDS011;11543;43.144;24.684;2023-11-21T04:52:12;6.50;;;3.15;;
22752;SDS011;11543;43.144;24.684;2023-11-21T04:54:37;6.07;;;3.03;;
22752;SDS011;11543;43.144;24.684;2023-11-21T04:57:04;3.83;;;2.53;;
22752;SDS011;11543;43.144;24.684;2023-11-21T04:59:32;6.10;;;2.97;;
22752;SDS011;11543;43.144;24.684;2023-11-21T05:01:58;5.28;;;2.70;;
22752;SDS011;11543;43.144;24.684;2023-11-21T05:04:25;5.75;;;3.85;;
22752;SDS011;11543;43.144;24.684;2023-11-21T05:06:50;6.38;;;4.00;;
22752;SDS011;11543;43.144;24.684;2023-11-21T05:09:16;8.15;;;4.40;;
22752;SDS011;11543;43.144;24.684;2023-11-21T05:11:42;12.05;;;7.32;;
22752;SDS011;11543;43.144;24.684;2023-11-21T05:14:08;22.60;;;13.85;;
22752;SDS011;11543;43.144;24.684;2023-11-21T05:16:33;24.05;;;14.52;;
22752;SDS011;11543;43.144;24.684;2023-11-21T05:19:00;25.02;;;13.20;;
22752;SDS011;11543;43.144;24.684;2023-11-21T05:21:29;19.15;;;11.38;;
22752;SDS011;11543;43.144;24.684;2023-11-21T05:23:57;15.82;;;8.82;;
22752;SDS011;11543;43.144;24.684;2023-11-21T05:26:23;12.55;;;7.65;;
22752;SDS011;11543;43.144;24.684;2023-11-21T05:28:48;12.88;;;7.50;;
22752;SDS011;11543;43.144;24.684;2023-11-21T05:31:13;11.77;;;7.97;;
22752;SDS011;11543;43.144;24.684;2023-11-21T05:33:40;20.00;;;12.02;;
22752;SDS011;11543;43.144;24.684;2023-11-21T05:36:06;20.52;;;12.77;;
22752;SDS011;11543;43.144;24.684;2023-11-21T05:38:33;19.60;;;12.60;;
22752;SDS011;11543;43.144;24.684;2023-11-21T05:41:00;18.73;;;11.45;;
22752;SDS011;11543;43.144;24.684;2023-11-21T05:43:26;17.20;;;11.45;;
22752;SDS011;11543;43.144;24.684;2023-11-21T05:45:54;12.02;;;6.90;;
22752;SDS011;11543;43.144;24.684;2023-11-21T05:48:19;13.30;;;5.78;;
22752;SDS011;11543;43.144;24.684;2023-11-21T05:50:46;8.35;;;4.57;;
22752;SDS011;11543;43.144;24.684;2023-11-21T05:53:12;8.73;;;4.82;;
22752;SDS011;11543;43.144;24.684;2023-11-21T05:55:37;16.38;;;3.70;;
22752;SDS011;11543;43.144;24.684;2023-11-21T05:58:04;7.65;;;3.05;;
22752;SDS011;11543;43.144;24.684;2023-11-21T06:00:30;6.47;;;2.47;;
22752;SDS011;11543;43.144;24.684;2023-11-21T06:02:57;3.55;;;2.38;;
22752;SDS011;11543;43.144;24.684;2023-11-21T06:05:23;8.30;;;3.08;;
22752;SDS011;11543;43.144;24.684;2023-11-21T06:07:50;5.13;;;2.67;;
22752;SDS011;11543;43.144;24.684;2023-11-21T06:10:16;3.28;;;1.70;;
22752;SDS011;11543;43.144;24.684;2023-11-21T06:12:43;3.50;;;1.77;;
22752;SDS011;11543;43.144;24.684;2023-11-21T06:15:08;5.45;;;2.08;;
22752;SDS011;11543;43.144;24.684;2023-11-21T06:17:38;4.05;;;1.77;;
22752;SDS011;11543;43.144;24.684;2023-11-21T06:20:08;4.85;;;2.25;;
22752;SDS011;11543;43.144;24.684;2023-11-21T06:25:08;4.63;;;1.50;;
22752;SDS011;11543;43.144;24.684;2023-11-21T06:27:38;4.32;;;1.40;;
22752;SDS011;11543;43.144;24.684;2023-11-21T06:30:07;3.85;;;1.48;;
22752;SDS011;11543;43.144;24.684;2023-11-21T06:32:34;4.88;;;1.60;;
22752;SDS011;11543;43.144;24.684;2023-11-21T06:35:01;3.30;;;1.50;;
22752;SDS011;11543;43.144;24.684;2023-11-21T06:37:29;4.40;;;1.30;;
22752;SDS011;11543;43.144;24.684;2023-11-21T06:39:55;2.40;;;1.00;;
22752;SDS011;11543;43.144;24.684;2023-11-21T06:42:21;3.85;;;1.27;;
22752;SDS011;11543;43.144;24.684;2023-11-21T06:44:47;2.67;;;1.30;;
22752;SDS011;11543;43.144;24.684;2023-11-21T06:47:14;2.92;;;1.20;;
22752;SDS011;11543;43.144;24.684;2023-11-21T06:49:40;4.07;;;1.90;;
22752;SDS011;11543;43.144;24.684;2023-11-21T06:52:06;3.08;;;1.80;;
22752;SDS011;11543;43.144;24.684;2023-11-21T06:54:31;3.10;;;2.00;;
22752;SDS011;11543;43.144;24.684;2023-11-21T06:56:58;4.22;;;1.95;;
22752;SDS011;11543;43.144;24.684;2023-11-21T06:59:23;3.70;;;1.88;;
22752;SDS011;11543;43.144;24.684;2023-11-21T07:01:49;4.97;;;1.90;;
22752;SDS011;11543;43.144;24.684;2023-11-21T07:04:15;4.45;;;2.35;;
22752;SDS011;11543;43.144;24.684;2023-11-21T07:06:43;5.07;;;2.20;;
22752;SDS011;11543;43.144;24.684;2023-11-21T07:09:09;7.05;;;3.15;;
22752;SDS011;11543;43.144;24.684;2023-11-21T07:11:36;10.40;;;6.70;;
22752;SDS011;11543;43.144;24.684;2023-11-21T07:14:03;18.15;;;10.55;;
22752;SDS011;11543;43.144;24.684;2023-11-21T07:16:34;22.90;;;11.32;;
22752;SDS011;11543;43.144;24.684;2023-11-21T07:19:02;20.70;;;11.40;;
22752;SDS011;11543;43.144;24.684;2023-11-21T07:21:31;18.00;;;10.98;;
22752;SDS011;11543;43.144;24.684;2023-11-21T07:24:01;20.92;;;10.98;;
22752;SDS011;11543;43.144;24.684;2023-11-21T07:26:31;17.83;;;10.00;;
22752;SDS011;11543;43.144;24.684;2023-11-21T07:28:57;19.75;;;10.35;;
22752;SDS011;11543;43.144;24.684;2023-11-21T07:31:23;18.73;;;11.25;;
22752;SDS011;11543;43.144;24.684;2023-11-21T07:33:49;20.95;;;12.07;;
22752;SDS011;11543;43.144;24.684;2023-11-21T07:36:15;14.85;;;8.40;;
22752;SDS011;11543;43.144;24.684;2023-11-21T07:38:43;16.27;;;5.53;;
22752;SDS011;11543;43.144;24.684;2023-11-21T07:41:10;11.80;;;5.25;;
22752;SDS011;11543;43.144;24.684;2023-11-21T07:43:36;9.95;;;4.65;;
22752;SDS011;11543;43.144;24.684;2023-11-21T07:46:02;7.70;;;4.07;;
22752;SDS011;11543;43.144;24.684;2023-11-21T07:48:29;14.25;;;4.32;;
22752;SDS011;11543;43.144;24.684;2023-11-21T07:50:58;5.32;;;3.00;;
22752;SDS011;11543;43.144;24.684;2023-11-21T07:53:24;5.13;;;3.20;;
22752;SDS011;11543;43.144;24.684;2023-11-21T07:55:50;4.55;;;2.88;;
22752;SDS011;11543;43.144;24.684;2023-11-21T07:58:17;5.55;;;3.35;;
22752;SDS011;11543;43.144;24.684;2023-11-21T08:00:43;7.35;;;3.47;;
22752;SDS011;11543;43.144;24.684;2023-11-21T08:03:08;5.20;;;3.42;;
22752;SDS011;11543;43.144;24.684;2023-11-21T08:05:34;6.65;;;3.80;;
22752;SDS011;11543;43.144;24.684;2023-11-21T08:07:59;8.25;;;4.57;;
22752;SDS011;11543;43.144;24.684;2023-11-21T08:10:25;16.88;;;9.18;;
22752;SDS011;11543;43.144;24.684;2023-11-21T08:12:51;14.98;;;7.93;;
22752;SDS011;11543;43.144;24.684;2023-11-21T08:15:16;24.42;;;12.75;;
22752;SDS011;11543;43.144;24.684;2023-11-21T08:17:42;59.03;;;30.08;;
22752;SDS011;11543;43.144;24.684;2023-11-21T08:20:07;49.67;;;29.88;;
22752;SDS011;11543;43.144;24.684;2023-11-21T08:22:35;26.70;;;14.90;;
22752;SDS011;11543;43.144;24.684;2023-11-21T08:25:01;24.17;;;12.90;;
22752;SDS011;11543;43.144;24.684;2023-11-21T08:27:29;23.98;;;12.73;;
22752;SDS011;11543;43.144;24.684;2023-11-21T08:29:54;31.77;;;13.52;;
22752;SDS011;11543;43.144;24.684;2023-11-21T08:32:21;22.63;;;12.95;;
22752;SDS011;11543;43.144;24.684;2023-11-21T08:34:47;21.35;;;10.50;;
22752;SDS011;11543;43.144;24.684;2023-11-21T08:37:15;19.73;;;10.90;;
22752;SDS011;11543;43.144;24.684;2023-11-21T08:39:41;15.95;;;8.75;;
22752;SDS011;11543;43.144;24.684;2023-11-21T08:42:08;15.15;;;8.18;;
22752;SDS011;11543;43.144;24.684;2023-11-21T08:44:33;12.10;;;6.88;;
22752;SDS011;11543;43.144;24.684;2023-11-21T08:46:59;12.57;;;7.10;;
22752;SDS011;11543;43.144;24.684;2023-11-21T08:49:24;10.70;;;5.93;;
22752;SDS011;11543;43.144;24.684;2023-11-21T08:51:52;9.60;;;5.20;;
22752;SDS011;11543;43.144;24.684;2023-11-21T08:54:20;9.70;;;4.07;;
22752;SDS011;11543;43.144;24.684;2023-11-21T08:56:46;7.30;;;4.10;;
22752;SDS011;11543;43.144;24.684;2023-11-21T08:59:12;8.82;;;3.95;;
22752;SDS011;11543;43.144;24.684;2023-11-21T09:01:39;10.07;;;4.30;;
22752;SDS011;11543;43.144;24.684;2023-11-21T09:04:05;6.90;;;3.72;;
22752;SDS011;11543;43.144;24.684;2023-11-21T09:06:30;8.13;;;4.60;;
22752;SDS011;11543;43.144;24.684;2023-11-21T09:08:56;7.47;;;3.92;;
22752;SDS011;11543;43.144;24.684;2023-11-21T09:11:21;8.80;;;4.30;;
22752;SDS011;11543;43.144;24.684;2023-11-21T09:13:47;8.23;;;4.28;;
22752;SDS011;11543;43.144;24.684;2023-11-21T09:16:13;8.60;;;4.85;;
22752;SDS011;11543;43.144;24.684;2023-11-21T09:18:40;8.20;;;5.07;;
22752;SDS011;11543;43.144;24.684;2023-11-21T09:21:06;8.85;;;4.57;;
22752;SDS011;11543;43.144;24.684;2023-11-21T09:23:31;11.10;;;6.78;;
22752;SDS011;11543;43.144;24.684;2023-11-21T09:25:57;9.20;;;5.15;;
22752;SDS011;11543;43.144;24.684;2023-11-21T09:28:24;12.82;;;5.82;;
22752;SDS011;11543;43.144;24.684;2023-11-21T09:30:52;10.52;;;6.38;;
22752;SDS011;11543;43.144;24.684;2023-11-21T09:33:18;7.07;;;3.55;;
22752;SDS011;11543;43.144;24.684;2023-11-21T09:35:44;10.52;;;3.95;;
22752;SDS011;11543;43.144;24.684;2023-11-21T09:38:09;10.65;;;3.30;;
22752;SDS011;11543;43.144;24.684;2023-11-21T09:40:36;10.18;;;4.78;;
22752;SDS011;11543;43.144;24.684;2023-11-21T09:43:06;5.68;;;3.25;;
22752;SDS011;11543;43.144;24.684;2023-11-21T09:45:41;9.80;;;4.55;;
22752;SDS011;11543;43.144;24.684;2023-11-21T09:48:12;13.48;;;7.25;;
22752;SDS011;11543;43.144;24.684;2023-11-21T09:50:39;13.65;;;6.20;;
22752;SDS011;11543;43.144;24.684;2023-11-21T09:53:20;18.55;;;12.07;;
22752;SDS011;11543;43.144;24.684;2023-11-21T09:55:47;11.52;;;6.22;;
22752;SDS011;11543;43.144;24.684;2023-11-21T09:58:16;9.43;;;5.07;;
22752;SDS011;11543;43.144;24.684;2023-11-21T10:00:43;9.30;;;4.85;;
22752;SDS011;11543;43.144;24.684;2023-11-21T10:03:10;25.00;;;17.27;;
22752;SDS011;11543;43.144;24.684;2023-11-21T10:05:36;11.38;;;7.45;;
22752;SDS011;11543;43.144;24.684;2023-11-21T10:08:09;17.67;;;12.65;;
22752;SDS011;11543;43.144;24.684;2023-11-21T10:10:36;23.98;;;16.52;;
22752;SDS011;11543;43.144;24.684;2023-11-21T10:13:03;21.83;;;10.95;;
22752;SDS011;11543;43.144;24.684;2023-11-21T10:15:31;19.52;;;12.43;;
22752;SDS011;11543;43.144;24.684;2023-11-21T10:17:59;22.33;;;16.25;;
22752;SDS011;11543;43.144;24.684;2023-11-21T10:20:32;13.82;;;7.03;;
22752;SDS011;11543;43.144;24.684;2023-11-21T10:23:03;8.38;;;4.75;;
22752;SDS011;11543;43.144;24.684;2023-11-21T10:25:29;5.55;;;2.28;;
22752;SDS011;11543;43.144;24.684;2023-11-21T10:28:01;6.13;;;2.85;;
22752;SDS011;11543;43.144;24.684;2023-11-21T10:30:32;5.60;;;1.65;;
22752;SDS011;11543;43.144;24.684;2023-11-21T10:33:02;2.95;;;1.38;;
22752;SDS011;11543;43.144;24.684;2023-11-21T10:35:46;5.22;;;2.00;;
22752;SDS011;11543;43.144;24.684;2023-11-21T10:38:19;4.22;;;2.15;;
22752;SDS011;11543;43.144;24.684;2023-11-21T10:40:47;1.60;;;1.10;;
22752;SDS011;11543;43.144;24.684;2023-11-21T10:43:14;2.80;;;1.60;;
22752;SDS011;11543;43.144;24.684;2023-11-21T10:45:43;7.50;;;4.32;;
22752;SDS011;11543;43.144;24.684;2023-11-21T10:48:09;8.73;;;6.72;;
22752;SDS011;11543;43.144;24.684;2023-11-21T10:50:37;3.90;;;3.33;;
22752;SDS011;11543;43.144;24.684;2023-11-21T10:53:03;4.05;;;2.97;;
22752;SDS011;11543;43.144;24.684;2023-11-21T10:55:30;3.70;;;2.38;;
22752;SDS011;11543;43.144;24.684;2023-11-21T10:57:58;3.40;;;2.05;;
22752;SDS011;11543;43.144;24.684;2023-11-21T11:00:26;1.77;;;1.08;;
22752;SDS011;11543;43.144;24.684;2023-11-21T11:02:52;2.58;;;0.70;;
22752;SDS011;11543;43.144;24.684;2023-11-21T11:05:22;2.85;;;0.60;;
22752;SDS011;11543;43.144;24.684;2023-11-21T11:08:09;4.05;;;0.70;;
22752;SDS011;11543;43.144;24.684;2023-11-21T11:10:37;3.42;;;1.20;;
22752;SDS011;11543;43.144;24.684;2023-11-21T11:13:03;2.70;;;1.10;;
22752;SDS011;11543;43.144;24.684;2023-11-21T11:15:29;4.20;;;1.45;;
22752;SDS011;11543;43.144;24.684;2023-11-21T11:17:55;3.60;;;1.10;;
22752;SDS011;11543;43.144;24.684;2023-11-21T11:20:25;6.55;;;1.38;;
22752;SDS011;11543;43.144;24.684;2023-11-21T11:31:40;5.75;;;1.55;;
22752;SDS011;11543;43.144;24.684;2023-11-21T11:34:18;4.35;;;1.50;;
22752;SDS011;11543;43.144;24.684;2023-11-21T11:36:57;6.07;;;2.25;;
22752;SDS011;11543;43.144;24.684;2023-11-21T11:41:56;3.17;;;1.00;;
22752;SDS011;11543;43.144;24.684;2023-11-21T11:47:44;3.03;;;1.40;;
22752;SDS011;11543;43.144;24.684;2023-11-21T11:50:08;5.50;;;1.80;;
22752;SDS011;11543;43.144;24.684;2023-11-21T11:55:14;4.20;;;1.80;;
22752;SDS011;11543;43.144;24.684;2023-11-21T11:57:44;5.53;;;1.95;;
22752;SDS011;11543;43.144;24.684;2023-11-21T12:02:52;8.48;;;4.05;;
22752;SDS011;11543;43.144;24.684;2023-11-21T12:05:22;28.48;;;18.35;;
22752;SDS011;11543;43.144;24.684;2023-11-21T12:07:55;9.82;;;4.60;;
22752;SDS011;11543;43.144;24.684;2023-11-21T12:10:23;30.92;;;19.83;;
22752;SDS011;11543;43.144;24.684;2023-11-21T12:12:57;24.05;;;14.50;;
22752;SDS011;11543;43.144;24.684;2023-11-21T12:15:23;20.92;;;12.70;;
22752;SDS011;11543;43.144;24.684;2023-11-21T12:17:50;14.32;;;9.75;;
22752;SDS011;11543;43.144;24.684;2023-11-21T12:20:20;11.98;;;5.55;;
22752;SDS011;11543;43.144;24.684;2023-11-21T12:22:48;14.20;;;8.13;;
22752;SDS011;11543;43.144;24.684;2023-11-21T12:25:16;10.93;;;6.50;;
22752;SDS011;11543;43.144;24.684;2023-11-21T12:27:45;8.07;;;2.67;;
22752;SDS011;11543;43.144;24.684;2023-11-21T12:30:14;10.68;;;3.83;;
22752;SDS011;11543;43.144;24.684;2023-11-21T12:32:42;8.43;;;3.00;;
22752;SDS011;11543;43.144;24.684;2023-11-21T12:35:12;7.40;;;2.50;;
22752;SDS011;11543;43.144;24.684;2023-11-21T12:37:39;6.93;;;2.20;;
22752;SDS011;11543;43.144;24.684;2023-11-21T12:40:10;8.00;;;2.10;;
22752;SDS011;11543;43.144;24.684;2023-11-21T12:42:39;6.22;;;1.90;;
22752;SDS011;11543;43.144;24.684;2023-11-21T12:45:10;9.50;;;1.85;;
22752;SDS011;11543;43.144;24.684;2023-11-21T12:47:43;7.47;;;1.70;;
22752;SDS011;11543;43.144;24.684;2023-11-21T12:50:13;8.35;;;2.20;;
22752;SDS011;11543;43.144;24.684;2023-11-21T12:52:42;10.35;;;2.03;;
22752;SDS011;11543;43.144;24.684;2023-11-21T12:55:15;6.35;;;2.33;;
22752;SDS011;11543;43.144;24.684;2023-11-21T12:57:43;9.90;;;3.13;;
22752;SDS011;11543;43.144;24.684;2023-11-21T13:00:09;11.13;;;3.08;;
22752;SDS011;11543;43.144;24.684;2023-11-21T13:02:41;8.13;;;2.53;;
22752;SDS011;11543;43.144;24.684;2023-11-21T13:05:08;7.10;;;3.08;;
22752;SDS011;11543;43.144;24.684;2023-11-21T13:07:43;6.65;;;2.72;;
22752;SDS011;11543;43.144;24.684;2023-11-21T13:10:12;7.82;;;3.20;;
22752;SDS011;11543;43.144;24.684;2023-11-21T13:12:47;6.20;;;3.45;;
22752;SDS011;11543;43.144;24.684;2023-11-21T13:15:13;7.88;;;4.20;;
22752;SDS011;11543;43.144;24.684;2023-11-21T13:17:43;7.30;;;4.43;;
22752;SDS011;11543;43.144;24.684;2023-11-21T13:20:10;10.15;;;4.60;;
22752;SDS011;11543;43.144;24.684;2023-11-21T13:23:06;12.35;;;5.00;;
22752;SDS011;11543;43.144;24.684;2023-11-21T13:25:32;10.48;;;5.05;;
22752;SDS011;11543;43.144;24.684;2023-11-21T13:27:58;9.50;;;4.90;;
22752;SDS011;11543;43.144;24.684;2023-11-21T13:30:25;10.02;;;5.60;;
22752;SDS011;11543;43.144;24.684;2023-11-21T13:32:55;10.20;;;4.68;;
22752;SDS011;11543;43.144;24.684;2023-11-21T13:35:27;15.05;;;4.88;;
22752;SDS011;11543;43.144;24.684;2023-11-21T13:37:57;11.65;;;5.45;;
22752;SDS011;11543;43.144;24.684;2023-11-21T13:40:31;9.02;;;4.63;;
22752;SDS011;11543;43.144;24.684;2023-11-21T13:43:05;10.73;;;5.38;;
22752;SDS011;11543;43.144;24.684;2023-11-21T13:45:35;9.20;;;4.90;;
22752;SDS011;11543;43.144;24.684;2023-11-21T13:48:07;8.50;;;4.57;;
22752;SDS011;11543;43.144;24.684;2023-11-21T13:50:41;7.05;;;4.20;;
22752;SDS011;11543;43.144;24.684;2023-11-21T13:53:24;10.52;;;5.00;;
22752;SDS011;11543;43.144;24.684;2023-11-21T13:55:53;7.88;;;4.45;;
22752;SDS011;11543;43.144;24.684;2023-11-21T13:58:23;13.15;;;4.78;;
22752;SDS011;11543;43.144;24.684;2023-11-21T14:01:07;7.60;;;4.40;;
22752;SDS011;11543;43.144;24.684;2023-11-21T14:03:52;10.25;;;4.53;;
22752;SDS011;11543;43.144;24.684;2023-11-21T14:06:24;8.48;;;4.63;;
22752;SDS011;11543;43.144;24.684;2023-11-21T14:08:55;10.07;;;4.38;;
22752;SDS011;11543;43.144;24.684;2023-11-21T14:11:22;8.32;;;4.03;;
22752;SDS011;11543;43.144;24.684;2023-11-21T14:13:47;7.47;;;3.75;;
22752;SDS011;11543;43.144;24.684;2023-11-21T14:16:14;7.25;;;4.35;;
22752;SDS011;11543;43.144;24.684;2023-11-21T14:18:42;8.32;;;4.47;;
22752;SDS011;11543;43.144;24.684;2023-11-21T14:21:18;10.95;;;6.38;;
22752;SDS011;11543;43.144;24.684;2023-11-21T14:23:44;11.85;;;6.63;;
22752;SDS011;11543;43.144;24.684;2023-11-21T14:26:10;9.32;;;3.92;;
22752;SDS011;11543;43.144;24.684;2023-11-21T14:28:40;7.43;;;3.40;;
22752;SDS011;11543;43.144;24.684;2023-11-21T14:31:06;7.43;;;3.00;;
22752;SDS011;11543;43.144;24.684;2023-11-21T14:33:33;5.28;;;2.60;;
22752;SDS011;11543;43.144;24.684;2023-11-21T14:35:58;6.90;;;2.85;;
22752;SDS011;11543;43.144;24.684;2023-11-21T14:38:24;7.13;;;3.47;;
22752;SDS011;11543;43.144;24.684;2023-11-21T14:40:49;4.60;;;2.70;;
22752;SDS011;11543;43.144;24.684;2023-11-21T14:43:15;5.13;;;2.63;;
22752;SDS011;11543;43.144;24.684;2023-11-21T14:45:42;5.15;;;2.65;;
22752;SDS011;11543;43.144;24.684;2023-11-21T14:48:07;6.18;;;3.22;;
22752;SDS011;11543;43.144;24.684;2023-11-21T14:50:41;11.50;;;5.97;;